sensor_id;sensor_type;location;lat;lon;timestamp;P1;durP1;ratioP1;P2;durP2;ratioP2
44606;SDS011;30315;46.072;14.474;2023-02-02T00:01:39;68.47;;;41.00;;
44606;SDS011;30315;46.072;14.474;2023-02-02T00:04:08;66.20;;;38.97;;
44606;SDS011;30315;46.072;14.474;2023-02-02T00:06:44;71.40;;;40.97;;
44606;SDS011;30315;46.072;14.474;2023-02-02T00:09:28;70.78;;;42.17;;
44606;SDS011;30315;46.072;14.474;2023-02-02T00:14:24;67.80;;;40.05;;
44606;SDS011;30315;46.072;14.474;2023-02-02T00:16:56;67.50;;;39.30;;
44606;SDS011;30315;46.072;14.474;2023-02-02T00:19:42;65.25;;;39.83;;
44606;SDS011;30315;46.072;14.474;2023-02-02T00:22:12;70.65;;;40.42;;
44606;SDS011;30315;46.072;14.474;2023-02-02T00:24:39;67.20;;;40.78;;
44606;SDS011;30315;46.072;14.474;2023-02-02T00:27:09;67.05;;;39.78;;
44606;SDS011;30315;46.072;14.474;2023-02-02T00:29:36;66.10;;;39.78;;
44606;SDS011;30315;46.072;14.474;2023-02-02T00:32:02;70.32;;;41.30;;
44606;SDS011;30315;46.072;14.474;2023-02-02T00:34:30;64.78;;;38.65;;
44606;SDS011;30315;46.072;14.474;2023-02-02T00:36:56;66.10;;;38.83;;
44606;SDS011;30315;46.072;14.474;2023-02-02T00:39:24;71.78;;;41.15;;
44606;SDS011;30315;46.072;14.474;2023-02-02T00:41:51;69.60;;;42.05;;
44606;SDS011;30315;46.072;14.474;2023-02-02T00:44:19;68.43;;;42.97;;
44606;SDS011;30315;46.072;14.474;2023-02-02T00:47:04;73.35;;;42.50;;
44606;SDS011;30315;46.072;14.474;2023-02-02T00:49:31;68.43;;;41.03;;
44606;SDS011;30315;46.072;14.474;2023-02-02T00:51:58;68.60;;;43.10;;
44606;SDS011;30315;46.072;14.474;2023-02-02T00:54:26;68.35;;;41.78;;
44606;SDS011;30315;46.072;14.474;2023-02-02T00:56:53;73.43;;;44.50;;
44606;SDS011;30315;46.072;14.474;2023-02-02T00:59:20;70.75;;;42.25;;
44606;SDS011;30315;46.072;14.474;2023-02-02T01:01:47;72.32;;;43.38;;
44606;SDS011;30315;46.072;14.474;2023-02-02T01:04:15;72.43;;;43.97;;
44606;SDS011;30315;46.072;14.474;2023-02-02T01:06:41;68.47;;;41.70;;
44606;SDS011;30315;46.072;14.474;2023-02-02T01:09:08;66.78;;;40.85;;
44606;SDS011;30315;46.072;14.474;2023-02-02T01:11:35;67.82;;;40.00;;
44606;SDS011;30315;46.072;14.474;2023-02-02T01:14:02;66.47;;;40.83;;
44606;SDS011;30315;46.072;14.474;2023-02-02T01:16:29;70.70;;;41.38;;
44606;SDS011;30315;46.072;14.474;2023-02-02T01:18:56;68.70;;;41.60;;
44606;SDS011;30315;46.072;14.474;2023-02-02T01:21:23;67.32;;;39.95;;
44606;SDS011;30315;46.072;14.474;2023-02-02T01:23:50;63.58;;;39.85;;
44606;SDS011;30315;46.072;14.474;2023-02-02T01:26:17;63.70;;;39.10;;
44606;SDS011;30315;46.072;14.474;2023-02-02T01:28:44;68.43;;;38.20;;
44606;SDS011;30315;46.072;14.474;2023-02-02T01:31:13;63.40;;;38.70;;
44606;SDS011;30315;46.072;14.474;2023-02-02T01:33:42;61.25;;;37.22;;
44606;SDS011;30315;46.072;14.474;2023-02-02T01:36:11;64.82;;;38.50;;
44606;SDS011;30315;46.072;14.474;2023-02-02T01:41:08;58.30;;;36.13;;
44606;SDS011;30315;46.072;14.474;2023-02-02T01:46:16;63.28;;;38.13;;
44606;SDS011;30315;46.072;14.474;2023-02-02T01:48:51;66.43;;;36.83;;
44606;SDS011;30315;46.072;14.474;2023-02-02T01:51:22;62.22;;;37.72;;
44606;SDS011;30315;46.072;14.474;2023-02-02T01:53:55;62.72;;;37.25;;
44606;SDS011;30315;46.072;14.474;2023-02-02T01:56:30;55.88;;;36.03;;
44606;SDS011;30315;46.072;14.474;2023-02-02T01:59:01;56.83;;;36.53;;
44606;SDS011;30315;46.072;14.474;2023-02-02T02:01:30;65.93;;;39.38;;
44606;SDS011;30315;46.072;14.474;2023-02-02T02:03:58;58.40;;;37.05;;
44606;SDS011;30315;46.072;14.474;2023-02-02T02:06:26;62.80;;;37.83;;
44606;SDS011;30315;46.072;14.474;2023-02-02T02:08:58;58.90;;;36.55;;
44606;SDS011;30315;46.072;14.474;2023-02-02T02:11:29;60.35;;;38.40;;
44606;SDS011;30315;46.072;14.474;2023-02-02T02:13:58;60.25;;;37.08;;
44606;SDS011;30315;46.072;14.474;2023-02-02T02:26:23;64.03;;;37.67;;
44606;SDS011;30315;46.072;14.474;2023-02-02T02:37:09;60.42;;;36.35;;
44606;SDS011;30315;46.072;14.474;2023-02-02T02:39:42;59.22;;;37.38;;
44606;SDS011;30315;46.072;14.474;2023-02-02T02:42:17;61.33;;;37.65;;
44606;SDS011;30315;46.072;14.474;2023-02-02T02:44:49;60.03;;;36.40;;
44606;SDS011;30315;46.072;14.474;2023-02-02T02:47:18;60.58;;;37.15;;
44606;SDS011;30315;46.072;14.474;2023-02-02T02:49:47;57.50;;;36.75;;
44606;SDS011;30315;46.072;14.474;2023-02-02T02:52:14;63.13;;;35.50;;
44606;SDS011;30315;46.072;14.474;2023-02-02T02:54:46;56.22;;;36.78;;
44606;SDS011;30315;46.072;14.474;2023-02-02T03:05:36;57.03;;;34.92;;
44606;SDS011;30315;46.072;14.474;2023-02-02T03:08:47;58.88;;;35.58;;
44606;SDS011;30315;46.072;14.474;2023-02-02T03:11:41;59.17;;;34.83;;
44606;SDS011;30315;46.072;14.474;2023-02-02T03:14:18;54.60;;;34.58;;
44606;SDS011;30315;46.072;14.474;2023-02-02T03:16:49;60.20;;;35.47;;
44606;SDS011;30315;46.072;14.474;2023-02-02T03:19:18;55.17;;;33.85;;
44606;SDS011;30315;46.072;14.474;2023-02-02T03:21:47;55.85;;;35.20;;
44606;SDS011;30315;46.072;14.474;2023-02-02T03:24:18;60.28;;;35.28;;
44606;SDS011;30315;46.072;14.474;2023-02-02T03:26:46;55.45;;;34.15;;
44606;SDS011;30315;46.072;14.474;2023-02-02T03:29:15;53.78;;;33.22;;
44606;SDS011;30315;46.072;14.474;2023-02-02T03:31:44;56.13;;;35.53;;
44606;SDS011;30315;46.072;14.474;2023-02-02T03:34:16;58.33;;;36.38;;
44606;SDS011;30315;46.072;14.474;2023-02-02T03:36:53;55.75;;;34.50;;
44606;SDS011;30315;46.072;14.474;2023-02-02T03:39:21;53.35;;;33.58;;
44606;SDS011;30315;46.072;14.474;2023-02-02T03:41:48;56.10;;;32.70;;
44606;SDS011;30315;46.072;14.474;2023-02-02T03:44:22;57.13;;;34.88;;
44606;SDS011;30315;46.072;14.474;2023-02-02T03:47:00;51.00;;;33.15;;
44606;SDS011;30315;46.072;14.474;2023-02-02T03:49:36;54.72;;;33.33;;
44606;SDS011;30315;46.072;14.474;2023-02-02T03:52:12;60.90;;;35.10;;
44606;SDS011;30315;46.072;14.474;2023-02-02T03:54:44;58.78;;;34.28;;
44606;SDS011;30315;46.072;14.474;2023-02-02T03:57:25;50.13;;;32.00;;
44606;SDS011;30315;46.072;14.474;2023-02-02T03:59:52;52.38;;;30.58;;
44606;SDS011;30315;46.072;14.474;2023-02-02T04:02:20;53.00;;;31.90;;
44606;SDS011;30315;46.072;14.474;2023-02-02T04:04:47;47.45;;;30.23;;
44606;SDS011;30315;46.072;14.474;2023-02-02T04:07:14;52.35;;;32.35;;
44606;SDS011;30315;46.072;14.474;2023-02-02T04:09:41;50.75;;;31.23;;
44606;SDS011;30315;46.072;14.474;2023-02-02T04:12:08;47.58;;;31.67;;
44606;SDS011;30315;46.072;14.474;2023-02-02T04:14:34;49.92;;;30.83;;
44606;SDS011;30315;46.072;14.474;2023-02-02T04:17:01;49.47;;;30.85;;
44606;SDS011;30315;46.072;14.474;2023-02-02T04:19:28;54.53;;;33.38;;
44606;SDS011;30315;46.072;14.474;2023-02-02T04:21:55;49.22;;;33.88;;
44606;SDS011;30315;46.072;14.474;2023-02-02T04:24:22;52.50;;;33.63;;
44606;SDS011;30315;46.072;14.474;2023-02-02T04:26:49;53.35;;;33.10;;
44606;SDS011;30315;46.072;14.474;2023-02-02T04:29:16;54.42;;;33.85;;
44606;SDS011;30315;46.072;14.474;2023-02-02T04:31:43;49.55;;;31.75;;
44606;SDS011;30315;46.072;14.474;2023-02-02T04:34:10;53.13;;;32.83;;
44606;SDS011;30315;46.072;14.474;2023-02-02T04:36:37;50.10;;;31.80;;
44606;SDS011;30315;46.072;14.474;2023-02-02T04:39:04;52.03;;;31.83;;
44606;SDS011;30315;46.072;14.474;2023-02-02T04:41:31;53.13;;;32.67;;
44606;SDS011;30315;46.072;14.474;2023-02-02T04:43:58;52.65;;;32.55;;
44606;SDS011;30315;46.072;14.474;2023-02-02T04:46:25;51.78;;;32.25;;
44606;SDS011;30315;46.072;14.474;2023-02-02T04:48:54;49.33;;;31.17;;
44606;SDS011;30315;46.072;14.474;2023-02-02T04:51:25;52.20;;;32.67;;
44606;SDS011;30315;46.072;14.474;2023-02-02T04:53:53;49.20;;;31.80;;
44606;SDS011;30315;46.072;14.474;2023-02-02T04:56:20;48.40;;;31.02;;
44606;SDS011;30315;46.072;14.474;2023-02-02T04:58:48;49.35;;;31.90;;
44606;SDS011;30315;46.072;14.474;2023-02-02T05:01:17;51.97;;;32.05;;
44606;SDS011;30315;46.072;14.474;2023-02-02T05:03:48;53.90;;;32.88;;
44606;SDS011;30315;46.072;14.474;2023-02-02T05:06:17;53.83;;;33.95;;
44606;SDS011;30315;46.072;14.474;2023-02-02T05:08:45;55.45;;;33.25;;
44606;SDS011;30315;46.072;14.474;2023-02-02T05:11:17;54.05;;;33.45;;
44606;SDS011;30315;46.072;14.474;2023-02-02T05:13:46;54.38;;;32.75;;
44606;SDS011;30315;46.072;14.474;2023-02-02T05:16:19;58.13;;;34.35;;
44606;SDS011;30315;46.072;14.474;2023-02-02T05:18:48;52.95;;;32.88;;
44606;SDS011;30315;46.072;14.474;2023-02-02T05:21:17;53.90;;;32.42;;
44606;SDS011;30315;46.072;14.474;2023-02-02T05:23:45;53.00;;;34.60;;
44606;SDS011;30315;46.072;14.474;2023-02-02T05:26:20;57.40;;;33.70;;
44606;SDS011;30315;46.072;14.474;2023-02-02T05:28:49;62.58;;;34.28;;
44606;SDS011;30315;46.072;14.474;2023-02-02T05:31:20;54.92;;;34.35;;
44606;SDS011;30315;46.072;14.474;2023-02-02T05:33:47;61.28;;;36.50;;
44606;SDS011;30315;46.072;14.474;2023-02-02T05:36:16;58.08;;;34.72;;
44606;SDS011;30315;46.072;14.474;2023-02-02T05:41:13;55.83;;;33.60;;
44606;SDS011;30315;46.072;14.474;2023-02-02T05:43:41;54.78;;;33.33;;
44606;SDS011;30315;46.072;14.474;2023-02-02T05:46:09;54.33;;;32.55;;
44606;SDS011;30315;46.072;14.474;2023-02-02T05:48:37;54.05;;;32.70;;
44606;SDS011;30315;46.072;14.474;2023-02-02T05:51:06;53.08;;;32.10;;
44606;SDS011;30315;46.072;14.474;2023-02-02T05:53:44;54.10;;;33.00;;
44606;SDS011;30315;46.072;14.474;2023-02-02T05:56:18;53.58;;;33.58;;
44606;SDS011;30315;46.072;14.474;2023-02-02T05:58:55;51.40;;;32.05;;
44606;SDS011;30315;46.072;14.474;2023-02-02T06:01:31;56.40;;;32.30;;
44606;SDS011;30315;46.072;14.474;2023-02-02T06:04:01;48.50;;;30.08;;
44606;SDS011;30315;46.072;14.474;2023-02-02T06:06:29;51.05;;;32.42;;
44606;SDS011;30315;46.072;14.474;2023-02-02T06:09:06;52.08;;;33.25;;
44606;SDS011;30315;46.072;14.474;2023-02-02T06:12:13;52.83;;;32.58;;
44606;SDS011;30315;46.072;14.474;2023-02-02T06:15:00;52.03;;;31.02;;
44606;SDS011;30315;46.072;14.474;2023-02-02T06:17:55;53.60;;;33.00;;
44606;SDS011;30315;46.072;14.474;2023-02-02T06:21:07;60.95;;;34.28;;
44606;SDS011;30315;46.072;14.474;2023-02-02T06:23:35;56.67;;;33.33;;
44606;SDS011;30315;46.072;14.474;2023-02-02T06:26:03;56.90;;;32.92;;
44606;SDS011;30315;46.072;14.474;2023-02-02T06:28:32;60.38;;;34.88;;
44606;SDS011;30315;46.072;14.474;2023-02-02T06:31:19;56.95;;;34.40;;
44606;SDS011;30315;46.072;14.474;2023-02-02T06:35:39;54.03;;;31.13;;
44606;SDS011;30315;46.072;14.474;2023-02-02T06:39:36;57.80;;;33.70;;
44606;SDS011;30315;46.072;14.474;2023-02-02T06:43:54;48.83;;;31.70;;
44606;SDS011;30315;46.072;14.474;2023-02-02T06:46:48;61.17;;;35.15;;
44606;SDS011;30315;46.072;14.474;2023-02-02T06:49:38;58.55;;;34.90;;
44606;SDS011;30315;46.072;14.474;2023-02-02T06:52:51;58.55;;;35.63;;
44606;SDS011;30315;46.072;14.474;2023-02-02T06:55:31;60.63;;;35.65;;
44606;SDS011;30315;46.072;14.474;2023-02-02T06:58:04;52.20;;;33.65;;
44606;SDS011;30315;46.072;14.474;2023-02-02T07:00:34;61.50;;;35.38;;
44606;SDS011;30315;46.072;14.474;2023-02-02T07:03:07;65.10;;;35.30;;
44606;SDS011;30315;46.072;14.474;2023-02-02T07:05:38;56.53;;;34.42;;
44606;SDS011;30315;46.072;14.474;2023-02-02T07:08:10;52.08;;;33.85;;
44606;SDS011;30315;46.072;14.474;2023-02-02T07:11:08;58.33;;;36.10;;
44606;SDS011;30315;46.072;14.474;2023-02-02T07:13:42;57.28;;;36.00;;
44606;SDS011;30315;46.072;14.474;2023-02-02T07:16:10;59.40;;;36.08;;
44606;SDS011;30315;46.072;14.474;2023-02-02T07:18:40;61.28;;;37.75;;
44606;SDS011;30315;46.072;14.474;2023-02-02T07:21:57;66.82;;;38.47;;
44606;SDS011;30315;46.072;14.474;2023-02-02T07:25:17;60.67;;;37.92;;
44606;SDS011;30315;46.072;14.474;2023-02-02T07:28:04;65.43;;;38.80;;
44606;SDS011;30315;46.072;14.474;2023-02-02T07:30:53;60.70;;;37.25;;
44606;SDS011;30315;46.072;14.474;2023-02-02T07:33:22;67.75;;;38.92;;
44606;SDS011;30315;46.072;14.474;2023-02-02T07:35:49;58.67;;;36.35;;
44606;SDS011;30315;46.072;14.474;2023-02-02T07:38:17;59.20;;;37.40;;
44606;SDS011;30315;46.072;14.474;2023-02-02T07:40:44;59.30;;;36.15;;
44606;SDS011;30315;46.072;14.474;2023-02-02T07:43:12;55.17;;;35.28;;
44606;SDS011;30315;46.072;14.474;2023-02-02T07:45:39;56.30;;;35.58;;
44606;SDS011;30315;46.072;14.474;2023-02-02T07:48:06;58.50;;;36.40;;
44606;SDS011;30315;46.072;14.474;2023-02-02T07:50:33;57.45;;;35.85;;
44606;SDS011;30315;46.072;14.474;2023-02-02T07:53:00;59.40;;;36.13;;
44606;SDS011;30315;46.072;14.474;2023-02-02T07:55:30;54.58;;;35.72;;
44606;SDS011;30315;46.072;14.474;2023-02-02T07:57:58;52.85;;;33.30;;
44606;SDS011;30315;46.072;14.474;2023-02-02T08:00:25;57.97;;;34.08;;
44606;SDS011;30315;46.072;14.474;2023-02-02T08:02:52;54.40;;;34.08;;
44606;SDS011;30315;46.072;14.474;2023-02-02T08:05:19;57.45;;;34.75;;
44606;SDS011;30315;46.072;14.474;2023-02-02T08:07:48;59.75;;;37.20;;
44606;SDS011;30315;46.072;14.474;2023-02-02T08:10:15;55.15;;;34.95;;
44606;SDS011;30315;46.072;14.474;2023-02-02T08:12:42;51.45;;;33.47;;
44606;SDS011;30315;46.072;14.474;2023-02-02T08:15:09;56.35;;;34.97;;
44606;SDS011;30315;46.072;14.474;2023-02-02T08:17:37;51.25;;;32.47;;
44606;SDS011;30315;46.072;14.474;2023-02-02T08:20:04;49.75;;;31.92;;
44606;SDS011;30315;46.072;14.474;2023-02-02T08:22:32;52.53;;;31.98;;
44606;SDS011;30315;46.072;14.474;2023-02-02T08:24:59;54.42;;;34.10;;
44606;SDS011;30315;46.072;14.474;2023-02-02T08:27:26;51.72;;;31.98;;
44606;SDS011;30315;46.072;14.474;2023-02-02T08:29:53;54.10;;;33.47;;
44606;SDS011;30315;46.072;14.474;2023-02-02T08:32:20;54.33;;;32.55;;
44606;SDS011;30315;46.072;14.474;2023-02-02T08:34:47;53.10;;;33.45;;
44606;SDS011;30315;46.072;14.474;2023-02-02T08:37:14;51.95;;;32.53;;
44606;SDS011;30315;46.072;14.474;2023-02-02T08:39:41;51.53;;;32.92;;
44606;SDS011;30315;46.072;14.474;2023-02-02T08:42:08;50.70;;;32.38;;
44606;SDS011;30315;46.072;14.474;2023-02-02T08:44:35;48.22;;;31.75;;
44606;SDS011;30315;46.072;14.474;2023-02-02T08:47:22;49.50;;;31.70;;
44606;SDS011;30315;46.072;14.474;2023-02-02T08:49:49;54.05;;;32.40;;
44606;SDS011;30315;46.072;14.474;2023-02-02T08:52:15;45.78;;;29.00;;
44606;SDS011;30315;46.072;14.474;2023-02-02T08:54:42;52.35;;;32.00;;
44606;SDS011;30315;46.072;14.474;2023-02-02T08:57:10;52.90;;;32.13;;
44606;SDS011;30315;46.072;14.474;2023-02-02T08:59:37;53.35;;;31.55;;
44606;SDS011;30315;46.072;14.474;2023-02-02T09:02:07;56.03;;;33.15;;
44606;SDS011;30315;46.072;14.474;2023-02-02T09:04:39;49.88;;;31.85;;
44606;SDS011;30315;46.072;14.474;2023-02-02T09:07:09;52.00;;;32.67;;
44606;SDS011;30315;46.072;14.474;2023-02-02T09:09:37;54.25;;;34.38;;
44606;SDS011;30315;46.072;14.474;2023-02-02T09:12:07;57.45;;;33.42;;
44606;SDS011;30315;46.072;14.474;2023-02-02T09:14:35;56.20;;;33.72;;
44606;SDS011;30315;46.072;14.474;2023-02-02T09:17:03;53.78;;;34.22;;
44606;SDS011;30315;46.072;14.474;2023-02-02T09:19:32;55.30;;;35.10;;
44606;SDS011;30315;46.072;14.474;2023-02-02T09:22:02;58.05;;;36.33;;
44606;SDS011;30315;46.072;14.474;2023-02-02T09:24:32;56.15;;;35.50;;
44606;SDS011;30315;46.072;14.474;2023-02-02T09:27:01;63.92;;;36.88;;
44606;SDS011;30315;46.072;14.474;2023-02-02T09:29:31;57.58;;;37.10;;
44606;SDS011;30315;46.072;14.474;2023-02-02T09:32:00;57.13;;;36.27;;
44606;SDS011;30315;46.072;14.474;2023-02-02T09:34:28;62.17;;;37.70;;
44606;SDS011;30315;46.072;14.474;2023-02-02T09:36:56;60.03;;;36.05;;
44606;SDS011;30315;46.072;14.474;2023-02-02T09:39:23;59.55;;;37.80;;
44606;SDS011;30315;46.072;14.474;2023-02-02T09:42:07;60.78;;;39.50;;
44606;SDS011;30315;46.072;14.474;2023-02-02T09:52:57;61.50;;;38.40;;
44606;SDS011;30315;46.072;14.474;2023-02-02T09:55:36;63.78;;;39.70;;
44606;SDS011;30315;46.072;14.474;2023-02-02T09:58:07;64.15;;;39.72;;
44606;SDS011;30315;46.072;14.474;2023-02-02T10:00:45;60.63;;;37.05;;
44606;SDS011;30315;46.072;14.474;2023-02-02T10:03:30;59.15;;;37.30;;
44606;SDS011;30315;46.072;14.474;2023-02-02T10:06:13;61.60;;;36.85;;
44606;SDS011;30315;46.072;14.474;2023-02-02T10:08:47;56.85;;;36.20;;
44606;SDS011;30315;46.072;14.474;2023-02-02T10:13:57;63.72;;;39.72;;
44606;SDS011;30315;46.072;14.474;2023-02-02T10:16:28;60.22;;;37.47;;
44606;SDS011;30315;46.072;14.474;2023-02-02T10:19:30;61.75;;;38.13;;
44606;SDS011;30315;46.072;14.474;2023-02-02T10:24:48;57.75;;;37.00;;
44606;SDS011;30315;46.072;14.474;2023-02-02T10:27:15;58.05;;;37.83;;
44606;SDS011;30315;46.072;14.474;2023-02-02T10:30:16;60.95;;;38.20;;
44606;SDS011;30315;46.072;14.474;2023-02-02T10:35:32;66.68;;;40.22;;
44606;SDS011;30315;46.072;14.474;2023-02-02T10:57:25;60.10;;;37.35;;
44606;SDS011;30315;46.072;14.474;2023-02-02T10:59:59;58.85;;;36.70;;
44606;SDS011;30315;46.072;14.474;2023-02-02T11:02:39;59.40;;;37.05;;
44606;SDS011;30315;46.072;14.474;2023-02-02T11:05:11;57.55;;;37.08;;
44606;SDS011;30315;46.072;14.474;2023-02-02T11:08:01;58.30;;;36.55;;
44606;SDS011;30315;46.072;14.474;2023-02-02T11:10:36;60.75;;;37.65;;
44606;SDS011;30315;46.072;14.474;2023-02-02T11:13:03;62.88;;;37.53;;
44606;SDS011;30315;46.072;14.474;2023-02-02T11:15:32;62.17;;;37.92;;
44606;SDS011;30315;46.072;14.474;2023-02-02T11:18:11;61.30;;;38.13;;
44606;SDS011;30315;46.072;14.474;2023-02-02T11:20:52;63.03;;;37.17;;
44606;SDS011;30315;46.072;14.474;2023-02-02T11:23:19;59.10;;;37.25;;
44606;SDS011;30315;46.072;14.474;2023-02-02T11:25:55;60.85;;;36.95;;
44606;SDS011;30315;46.072;14.474;2023-02-02T11:28:24;60.75;;;36.92;;
44606;SDS011;30315;46.072;14.474;2023-02-02T11:30:56;57.58;;;36.83;;
44606;SDS011;30315;46.072;14.474;2023-02-02T11:35:57;61.78;;;38.33;;
44606;SDS011;30315;46.072;14.474;2023-02-02T11:38:28;58.45;;;36.67;;
44606;SDS011;30315;46.072;14.474;2023-02-02T11:40:59;61.78;;;38.40;;
44606;SDS011;30315;46.072;14.474;2023-02-02T11:43:36;58.20;;;36.15;;
44606;SDS011;30315;46.072;14.474;2023-02-02T11:46:17;58.75;;;36.83;;
44606;SDS011;30315;46.072;14.474;2023-02-02T11:48:48;57.58;;;36.50;;
44606;SDS011;30315;46.072;14.474;2023-02-02T11:51:26;60.63;;;36.17;;
44606;SDS011;30315;46.072;14.474;2023-02-02T11:54:05;60.30;;;37.03;;
44606;SDS011;30315;46.072;14.474;2023-02-02T11:56:46;54.88;;;34.78;;
44606;SDS011;30315;46.072;14.474;2023-02-02T11:59:30;59.03;;;35.90;;
44606;SDS011;30315;46.072;14.474;2023-02-02T12:04:51;53.80;;;35.78;;
44606;SDS011;30315;46.072;14.474;2023-02-02T12:07:27;55.67;;;36.63;;
44606;SDS011;30315;46.072;14.474;2023-02-02T12:10:03;53.45;;;34.28;;
44606;SDS011;30315;46.072;14.474;2023-02-02T12:12:44;56.05;;;34.85;;
44606;SDS011;30315;46.072;14.474;2023-02-02T12:20:59;51.30;;;33.55;;
44606;SDS011;30315;46.072;14.474;2023-02-02T12:23:46;52.08;;;34.10;;
44606;SDS011;30315;46.072;14.474;2023-02-02T12:26:21;54.17;;;33.45;;
44606;SDS011;30315;46.072;14.474;2023-02-02T12:31:59;52.25;;;32.65;;
44606;SDS011;30315;46.072;14.474;2023-02-02T12:34:55;51.85;;;33.47;;
44606;SDS011;30315;46.072;14.474;2023-02-02T12:45:39;47.63;;;31.63;;
44606;SDS011;30315;46.072;14.474;2023-02-02T12:57:16;47.33;;;30.23;;
44606;SDS011;30315;46.072;14.474;2023-02-02T13:02:49;48.35;;;31.52;;
44606;SDS011;30315;46.072;14.474;2023-02-02T13:07:57;41.38;;;28.23;;
44606;SDS011;30315;46.072;14.474;2023-02-02T13:10:41;42.90;;;28.92;;
44606;SDS011;30315;46.072;14.474;2023-02-02T13:13:24;45.80;;;29.13;;
44606;SDS011;30315;46.072;14.474;2023-02-02T13:16:04;45.10;;;28.38;;
44606;SDS011;30315;46.072;14.474;2023-02-02T13:18:39;39.70;;;26.80;;
44606;SDS011;30315;46.072;14.474;2023-02-02T13:21:12;41.55;;;27.95;;
44606;SDS011;30315;46.072;14.474;2023-02-02T13:23:43;43.53;;;29.52;;
44606;SDS011;30315;46.072;14.474;2023-02-02T13:26:17;41.92;;;28.77;;
44606;SDS011;30315;46.072;14.474;2023-02-02T13:28:55;65.53;;;37.10;;
44606;SDS011;30315;46.072;14.474;2023-02-02T13:36:33;42.00;;;26.38;;
44606;SDS011;30315;46.072;14.474;2023-02-02T13:39:08;35.42;;;26.10;;
44606;SDS011;30315;46.072;14.474;2023-02-02T13:41:48;37.90;;;26.42;;
44606;SDS011;30315;46.072;14.474;2023-02-02T13:44:24;40.70;;;27.47;;
44606;SDS011;30315;46.072;14.474;2023-02-02T13:46:59;35.78;;;25.25;;
44606;SDS011;30315;46.072;14.474;2023-02-02T13:49:37;35.90;;;24.23;;
44606;SDS011;30315;46.072;14.474;2023-02-02T14:01:00;28.42;;;20.83;;
44606;SDS011;30315;46.072;14.474;2023-02-02T14:03:53;29.42;;;20.42;;
44606;SDS011;30315;46.072;14.474;2023-02-02T14:06:21;26.67;;;20.05;;
44606;SDS011;30315;46.072;14.474;2023-02-02T14:08:51;29.33;;;20.83;;
44606;SDS011;30315;46.072;14.474;2023-02-02T14:11:29;25.02;;;19.05;;
44606;SDS011;30315;46.072;14.474;2023-02-02T14:14:05;27.17;;;20.20;;
44606;SDS011;30315;46.072;14.474;2023-02-02T14:17:05;29.48;;;20.38;;
44606;SDS011;30315;46.072;14.474;2023-02-02T14:19:56;24.98;;;20.00;;
44606;SDS011;30315;46.072;14.474;2023-02-02T14:27:59;28.88;;;20.35;;
44606;SDS011;30315;46.072;14.474;2023-02-02T14:30:38;29.70;;;19.70;;
44606;SDS011;30315;46.072;14.474;2023-02-02T14:35:51;27.48;;;19.45;;
44606;SDS011;30315;46.072;14.474;2023-02-02T14:45:25;25.98;;;18.80;;
44606;SDS011;30315;46.072;14.474;2023-02-02T15:01:06;26.98;;;19.63;;
44606;SDS011;30315;46.072;14.474;2023-02-02T15:03:54;27.23;;;19.20;;
44606;SDS011;30315;46.072;14.474;2023-02-02T15:17:10;27.45;;;20.33;;
44606;SDS011;30315;46.072;14.474;2023-02-02T15:19:41;28.30;;;21.35;;
44606;SDS011;30315;46.072;14.474;2023-02-02T15:22:22;28.98;;;21.08;;
44606;SDS011;30315;46.072;14.474;2023-02-02T15:24:57;29.00;;;21.30;;
44606;SDS011;30315;46.072;14.474;2023-02-02T15:27:29;30.58;;;21.10;;
44606;SDS011;30315;46.072;14.474;2023-02-02T15:30:00;28.35;;;20.58;;
44606;SDS011;30315;46.072;14.474;2023-02-02T15:32:32;30.38;;;20.90;;
44606;SDS011;30315;46.072;14.474;2023-02-02T15:35:05;31.13;;;21.98;;
44606;SDS011;30315;46.072;14.474;2023-02-02T15:37:38;29.98;;;21.33;;
44606;SDS011;30315;46.072;14.474;2023-02-02T15:40:09;26.80;;;19.75;;
44606;SDS011;30315;46.072;14.474;2023-02-02T15:42:41;31.33;;;20.65;;
44606;SDS011;30315;46.072;14.474;2023-02-02T15:45:33;31.70;;;21.50;;
44606;SDS011;30315;46.072;14.474;2023-02-02T15:48:11;29.33;;;20.65;;
44606;SDS011;30315;46.072;14.474;2023-02-02T15:50:46;33.88;;;21.15;;
44606;SDS011;30315;46.072;14.474;2023-02-02T15:53:21;28.50;;;21.38;;
44606;SDS011;30315;46.072;14.474;2023-02-02T15:55:48;31.08;;;21.23;;
44606;SDS011;30315;46.072;14.474;2023-02-02T15:58:20;35.60;;;23.50;;
44606;SDS011;30315;46.072;14.474;2023-02-02T16:01:05;32.83;;;21.83;;
44606;SDS011;30315;46.072;14.474;2023-02-02T16:06:27;31.52;;;21.77;;
44606;SDS011;30315;46.072;14.474;2023-02-02T16:08:55;38.60;;;23.15;;
44606;SDS011;30315;46.072;14.474;2023-02-02T16:11:22;32.28;;;23.15;;
44606;SDS011;30315;46.072;14.474;2023-02-02T16:13:59;40.47;;;25.08;;
44606;SDS011;30315;46.072;14.474;2023-02-02T16:21:34;40.03;;;23.92;;
44606;SDS011;30315;46.072;14.474;2023-02-02T16:24:06;37.33;;;24.05;;
44606;SDS011;30315;46.072;14.474;2023-02-02T16:26:40;42.70;;;24.60;;
44606;SDS011;30315;46.072;14.474;2023-02-02T16:29:09;40.40;;;25.58;;
44606;SDS011;30315;46.072;14.474;2023-02-02T16:31:43;42.58;;;29.15;;
44606;SDS011;30315;46.072;14.474;2023-02-02T16:37:32;40.10;;;26.45;;
44606;SDS011;30315;46.072;14.474;2023-02-02T16:39:56;41.50;;;25.85;;
44606;SDS011;30315;46.072;14.474;2023-02-02T16:43:02;40.50;;;26.60;;
44606;SDS011;30315;46.072;14.474;2023-02-02T16:45:48;36.80;;;25.13;;
44606;SDS011;30315;46.072;14.474;2023-02-02T16:53:41;40.58;;;26.15;;
44606;SDS011;30315;46.072;14.474;2023-02-02T16:56:45;43.55;;;28.60;;
44606;SDS011;30315;46.072;14.474;2023-02-02T17:01:52;38.10;;;25.25;;
44606;SDS011;30315;46.072;14.474;2023-02-02T17:04:30;43.60;;;27.60;;
44606;SDS011;30315;46.072;14.474;2023-02-02T17:07:09;46.63;;;28.88;;
44606;SDS011;30315;46.072;14.474;2023-02-02T17:09:40;44.47;;;27.40;;
44606;SDS011;30315;46.072;14.474;2023-02-02T17:15:00;41.28;;;27.73;;
44606;SDS011;30315;46.072;14.474;2023-02-02T17:17:47;43.78;;;26.80;;
44606;SDS011;30315;46.072;14.474;2023-02-02T17:20:15;44.05;;;26.38;;
44606;SDS011;30315;46.072;14.474;2023-02-02T17:22:47;42.57;;;27.40;;
44606;SDS011;30315;46.072;14.474;2023-02-02T17:25:18;53.72;;;31.50;;
44606;SDS011;30315;46.072;14.474;2023-02-02T17:27:57;51.15;;;28.17;;
44606;SDS011;30315;46.072;14.474;2023-02-02T17:30:25;53.03;;;29.58;;
44606;SDS011;30315;46.072;14.474;2023-02-02T17:32:54;54.20;;;32.65;;
44606;SDS011;30315;46.072;14.474;2023-02-02T17:35:22;51.88;;;32.60;;
44606;SDS011;30315;46.072;14.474;2023-02-02T17:37:52;53.47;;;33.85;;
44606;SDS011;30315;46.072;14.474;2023-02-02T17:40:20;56.00;;;36.75;;
44606;SDS011;30315;46.072;14.474;2023-02-02T17:42:49;52.10;;;34.60;;
44606;SDS011;30315;46.072;14.474;2023-02-02T17:45:51;53.95;;;33.30;;
44606;SDS011;30315;46.072;14.474;2023-02-02T17:48:11;46.90;;;29.35;;
44606;SDS011;30315;46.072;14.474;2023-02-02T17:50:39;40.20;;;26.70;;
44606;SDS011;30315;46.072;14.474;2023-02-02T17:53:10;46.42;;;29.25;;